createdAt,value
2022-08-07T00:01:44.053Z,63.00
2022-08-07T00:04:09.522Z,63.00
2022-08-07T00:06:51.052Z,63.00
2022-08-07T00:09:21.057Z,63.00
2022-08-07T00:11:55.556Z,63.10
2022-08-07T00:14:30.062Z,63.20
2022-08-07T00:17:01.683Z,63.20
2022-08-07T00:19:34.479Z,63.20
2022-08-07T00:22:24.600Z,63.10
2022-08-07T00:25:05.069Z,63.10
2022-08-07T00:27:35.931Z,63.20
2022-08-07T00:30:26.488Z,63.30
2022-08-07T00:32:57.221Z,63.20
2022-08-07T00:35:26.198Z,63.40
2022-08-07T00:37:54.677Z,63.60
2022-08-07T00:40:39.339Z,63.70
2022-08-07T00:44:01.496Z,63.90
2022-08-07T00:46:03.258Z,64.00
2022-08-07T00:48:32.535Z,64.20
2022-08-07T00:51:03.030Z,64.30
2022-08-07T00:53:38.352Z,64.30
2022-08-07T00:56:13.895Z,64.40
2022-08-07T00:58:43.870Z,64.60
2022-08-07T01:01:16.750Z,64.90
2022-08-07T01:03:56.344Z,64.80
2022-08-07T01:06:29.441Z,65.00
2022-08-07T01:09:00.703Z,65.10
2022-08-07T01:12:09.984Z,65.20
2022-08-07T01:14:28.333Z,65.20
2022-08-07T01:16:57.982Z,65.30
2022-08-07T01:19:32.651Z,65.20
2022-08-07T01:22:03.418Z,65.50
2022-08-07T01:24:41.246Z,65.40
2022-08-07T01:27:19.247Z,65.40
2022-08-07T01:29:48.000Z,65.50
2022-08-07T01:32:19.842Z,65.40
2022-08-07T01:34:52.042Z,65.30
2022-08-07T01:37:20.127Z,65.20
2022-08-07T01:39:50.654Z,65.20
2022-08-07T01:42:38.669Z,65.20
2022-08-07T01:45:17.857Z,65.10
2022-08-07T01:48:20.416Z,65.20
2022-08-07T01:50:43.191Z,65.10
2022-08-07T01:53:21.095Z,65.20
2022-08-07T01:56:04.673Z,65.20
2022-08-07T01:58:40.909Z,65.10
2022-08-07T02:01:59.026Z,65.00
2022-08-07T02:04:16.372Z,64.90
2022-08-07T02:06:49.778Z,64.90
2022-08-07T02:09:52.326Z,64.90
2022-08-07T02:12:17.624Z,64.80
2022-08-07T02:14:55.268Z,64.60
2022-08-07T02:17:40.999Z,65.20
2022-08-07T02:20:23.467Z,64.70
2022-08-07T02:22:59.696Z,64.70
2022-08-07T02:25:47.239Z,64.50
2022-08-07T02:28:25.459Z,64.50
2022-08-07T02:31:00.429Z,64.40
2022-08-07T02:34:01.762Z,64.40
2022-08-07T02:36:37.189Z,64.50
2022-08-07T02:39:17.055Z,64.60
2022-08-07T02:42:02.274Z,64.50
2022-08-07T02:44:34.297Z,64.70
2022-08-07T02:47:05.639Z,64.60
2022-08-07T02:49:58.518Z,64.50
2022-08-07T02:52:32.307Z,64.40
2022-08-07T02:55:05.239Z,64.20
2022-08-07T02:57:55.768Z,64.10
2022-08-07T03:00:26.967Z,64.10
2022-08-07T03:02:59.472Z,64.20
2022-08-07T03:05:29.304Z,64.40
2022-08-07T03:08:10.382Z,64.60
2022-08-07T03:10:46.508Z,64.80
2022-08-07T03:13:20.784Z,64.90
2022-08-07T03:15:56.716Z,65.00
2022-08-07T03:18:34.697Z,65.20
2022-08-07T03:21:08.918Z,65.40
2022-08-07T03:24:19.375Z,65.60
2022-08-07T03:26:33.364Z,65.80
2022-08-07T03:29:11.133Z,66.00
2022-08-07T03:31:50.042Z,66.10
2022-08-07T03:34:22.122Z,66.20
2022-08-07T03:36:57.450Z,66.20
2022-08-07T03:39:46.416Z,66.40
2022-08-07T03:42:18.069Z,66.40
2022-08-07T03:44:53.433Z,66.40
2022-08-07T03:47:22.996Z,66.40
2022-08-07T03:49:52.411Z,66.40
2022-08-07T03:52:27.647Z,66.40
2022-08-07T03:55:06.518Z,66.50
2022-08-07T03:59:06.689Z,66.40
2022-08-07T04:00:35.506Z,66.50
2022-08-07T04:03:05.943Z,66.40
2022-08-07T04:05:41.971Z,66.50
2022-08-07T04:08:21.397Z,66.40
2022-08-07T04:10:53.893Z,66.40
2022-08-07T04:13:27.815Z,66.50
2022-08-07T04:15:56.897Z,66.40
2022-08-07T04:18:57.368Z,66.40
2022-08-07T04:21:15.186Z,66.40
2022-08-07T04:24:07.189Z,66.40
2022-08-07T04:26:33.198Z,66.40
2022-08-07T04:29:00.827Z,66.40
2022-08-07T04:31:38.657Z,66.40
2022-08-07T04:34:27.546Z,66.50
2022-08-07T04:37:01.721Z,66.50
2022-08-07T04:39:35.989Z,66.50
2022-08-07T04:42:06.206Z,66.60
2022-08-07T04:44:36.681Z,66.60
2022-08-07T04:48:12.393Z,66.60
2022-08-07T04:50:52.879Z,66.50
2022-08-07T04:54:00.973Z,66.70
2022-08-07T04:58:14.159Z,66.70
2022-08-07T05:00:11.067Z,66.40
2022-08-07T05:02:56.944Z,66.50
2022-08-07T05:05:53.206Z,66.60
2022-08-07T05:08:59.894Z,66.70
2022-08-07T05:11:58.191Z,66.70
2022-08-07T05:14:54.448Z,66.60
2022-08-07T05:17:51.548Z,66.70
2022-08-07T05:20:25.614Z,66.80
2022-08-07T05:23:02.175Z,66.80
2022-08-07T05:25:54.436Z,66.80
2022-08-07T05:28:23.234Z,66.80
2022-08-07T05:30:57.175Z,66.80
2022-08-07T05:33:29.657Z,66.80
2022-08-07T05:35:59.489Z,66.90
2022-08-07T05:39:00.331Z,66.90
2022-08-07T05:41:18.292Z,67.00
2022-08-07T05:44:12.333Z,66.80
2022-08-07T05:46:46.548Z,66.90
2022-08-07T05:49:24.453Z,67.00
2022-08-07T05:51:55.283Z,67.00
2022-08-07T05:54:31.080Z,67.00
2022-08-07T05:57:15.477Z,67.00
2022-08-07T05:59:55.896Z,67.00
2022-08-07T06:02:31.429Z,67.00
2022-08-07T06:05:15.876Z,67.10
2022-08-07T06:08:14.572Z,67.20
2022-08-07T06:10:39.552Z,67.20
2022-08-07T06:13:13.567Z,67.20
2022-08-07T06:15:45.388Z,67.20
2022-08-07T06:18:21.686Z,67.30
2022-08-07T06:22:16.917Z,67.20
2022-08-07T06:24:37.286Z,67.20
2022-08-07T06:26:29.505Z,67.30
2022-08-07T06:29:01.312Z,67.10
2022-08-07T06:31:38.790Z,67.30
2022-08-07T06:34:20.628Z,67.20
2022-08-07T06:36:51.871Z,67.10
2022-08-07T06:40:17.253Z,67.20
2022-08-07T06:42:35.328Z,67.20
2022-08-07T06:45:18.566Z,67.10
2022-08-07T06:47:58.986Z,67.10
2022-08-07T06:50:47.747Z,67.20
2022-08-07T06:55:28.999Z,67.00
2022-08-07T06:56:15.193Z,66.90
2022-08-07T07:00:15.073Z,66.70
2022-08-07T07:01:48.720Z,66.60
2022-08-07T07:04:28.007Z,66.80
2022-08-07T07:07:02.373Z,66.70
2022-08-07T07:09:49.068Z,66.70
2022-08-07T07:12:33.670Z,66.60
2022-08-07T07:15:08.594Z,66.50
2022-08-07T07:17:59.452Z,66.20
2022-08-07T07:20:40.091Z,66.20
2022-08-07T07:24:06.654Z,66.30
2022-08-07T07:26:35.524Z,66.30
2022-08-07T07:29:57.124Z,66.40
2022-08-07T07:31:48.232Z,66.40
2022-08-07T07:34:22.545Z,66.10
2022-08-07T07:37:14.801Z,66.20
2022-08-07T07:39:54.718Z,66.00
2022-08-07T07:42:32.813Z,65.60
2022-08-07T07:45:04.673Z,65.70
2022-08-07T07:47:51.834Z,65.60
2022-08-07T07:50:33.642Z,65.30
2022-08-07T07:53:20.421Z,65.30
2022-08-07T07:56:00.928Z,65.10
2022-08-07T07:58:40.528Z,65.00
2022-08-07T08:02:03.108Z,64.50
2022-08-07T08:04:06.301Z,64.40
2022-08-07T08:06:50.711Z,64.60
2022-08-07T08:09:23.379Z,64.20
2022-08-07T08:12:01.660Z,64.40
2022-08-07T08:14:36.671Z,64.30
2022-08-07T08:17:56.499Z,63.50
2022-08-07T08:20:18.508Z,63.80
2022-08-07T08:23:12.880Z,63.50
2022-08-07T08:27:20.470Z,63.30
2022-08-07T08:28:53.640Z,63.30
2022-08-07T08:31:30.077Z,63.20
2022-08-07T08:34:26.663Z,63.30
2022-08-07T08:36:58.248Z,62.90
2022-08-07T08:39:39.559Z,62.50
2022-08-07T08:42:18.523Z,62.40
2022-08-07T08:44:59.058Z,61.90
2022-08-07T08:47:52.329Z,62.20
2022-08-07T08:50:34.918Z,62.70
2022-08-07T08:53:15.130Z,62.40
2022-08-07T08:55:59.174Z,61.60
2022-08-07T08:59:16.439Z,61.60
2022-08-07T09:02:13.533Z,61.90
2022-08-07T09:04:58.265Z,61.50
2022-08-07T09:07:57.678Z,60.80
2022-08-07T09:10:47.210Z,61.10
2022-08-07T09:13:38.085Z,61.10
2022-08-07T09:16:22.555Z,61.10
2022-08-07T09:19:52.128Z,60.80
2022-08-07T09:24:53.786Z,61.30
2022-08-07T09:25:31.508Z,61.90
2022-08-07T09:30:01.234Z,62.00
2022-08-07T09:31:16.894Z,62.20
2022-08-07T09:34:18.504Z,61.50
2022-08-07T09:37:33.628Z,60.90
2022-08-07T09:40:42.514Z,61.20
2022-08-07T09:43:40.302Z,61.40
2022-08-07T09:47:50.209Z,60.90
2022-08-07T09:50:02.068Z,60.40
2022-08-07T09:52:43.252Z,60.70
2022-08-07T09:55:29.535Z,60.60
2022-08-07T09:59:07.625Z,60.90
2022-08-07T10:01:56.031Z,60.30
2022-08-07T10:04:47.857Z,59.50
2022-08-07T10:07:52.212Z,59.10
2022-08-07T10:11:17.148Z,58.70
2022-08-07T10:14:00.458Z,57.60
2022-08-07T10:17:14.489Z,57.60
2022-08-07T10:19:48.085Z,58.30
2022-08-07T10:22:43.217Z,58.00
2022-08-07T10:25:24.483Z,59.40
2022-08-07T10:28:30.830Z,58.00
2022-08-07T10:31:13.361Z,59.00
2022-08-07T10:34:06.351Z,58.60
2022-08-07T10:37:04.093Z,58.30
2022-08-07T10:40:05.195Z,58.00
2022-08-07T10:43:10.548Z,58.60
2022-08-07T10:45:45.331Z,58.80
2022-08-07T10:48:51.419Z,57.20
2022-08-07T10:51:39.643Z,57.40
2022-08-07T10:54:35.759Z,56.30
2022-08-07T10:57:04.686Z,58.00
2022-08-07T10:59:50.868Z,57.20
2022-08-07T11:02:37.974Z,56.40
2022-08-07T11:05:50.805Z,56.70
2022-08-07T11:08:30.196Z,57.20
2022-08-07T11:11:16.648Z,56.00
2022-08-07T11:14:43.774Z,56.70
2022-08-07T11:17:23.123Z,57.00
2022-08-07T11:20:14.897Z,56.50
2022-08-07T11:23:03.497Z,56.00
2022-08-07T11:25:42.531Z,57.30
2022-08-07T11:28:28.328Z,56.10
2022-08-07T11:31:18.292Z,54.60
2022-08-07T11:34:25.114Z,54.60
2022-08-07T11:37:14.177Z,55.70
2022-08-07T11:40:07.236Z,55.10
2022-08-07T11:43:00.650Z,55.30
2022-08-07T11:45:38.204Z,55.10
2022-08-07T11:48:29.706Z,54.50
2022-08-07T11:51:40.695Z,55.20
2022-08-07T11:54:40.438Z,55.30
2022-08-07T11:57:16.753Z,55.30
2022-08-07T12:00:18.388Z,54.60
2022-08-07T12:03:00.009Z,55.30
2022-08-07T12:05:49.059Z,55.00
2022-08-07T12:08:31.871Z,54.80
2022-08-07T12:11:22.053Z,54.90
2022-08-07T12:13:53.049Z,54.20
2022-08-07T12:16:30.869Z,54.40
2022-08-07T12:19:24.495Z,54.20
2022-08-07T12:22:37.283Z,54.50
2022-08-07T12:26:21.393Z,54.80
2022-08-07T12:28:32.452Z,54.80
2022-08-07T12:31:09.364Z,54.60
2022-08-07T12:33:55.970Z,55.20
2022-08-07T12:36:33.199Z,55.60
2022-08-07T12:39:41.929Z,54.90
2022-08-07T12:41:54.926Z,55.20
2022-08-07T12:44:26.094Z,56.00
2022-08-07T12:47:27.138Z,56.00
2022-08-07T12:50:38.161Z,55.10
2022-08-07T12:54:03.432Z,55.50
2022-08-07T12:56:40.302Z,55.10
2022-08-07T12:59:20.564Z,54.90
2022-08-07T13:01:53.824Z,54.10
2022-08-07T13:05:01.830Z,54.70
2022-08-07T13:08:14.280Z,54.30
2022-08-07T13:10:55.909Z,52.90
2022-08-07T13:13:47.508Z,53.80
2022-08-07T13:16:36.691Z,54.10
2022-08-07T13:19:45.741Z,54.00
2022-08-07T13:22:27.814Z,54.30
2022-08-07T13:25:00.096Z,53.80
2022-08-07T13:28:11.178Z,52.80
2022-08-07T13:30:40.376Z,53.20
2022-08-07T13:34:31.125Z,52.90
2022-08-07T13:36:39.603Z,50.10
2022-08-07T13:40:32.832Z,50.40
2022-08-07T13:42:25.990Z,51.20
2022-08-07T13:44:55.437Z,50.40
2022-08-07T13:48:06.959Z,51.10
2022-08-07T13:50:45.309Z,51.80
2022-08-07T13:53:26.873Z,53.80
2022-08-07T13:56:19.443Z,53.60
2022-08-07T13:59:10.263Z,53.70
2022-08-07T14:01:51.639Z,54.20
2022-08-07T14:04:35.724Z,53.90
2022-08-07T14:07:09.246Z,53.50
2022-08-07T14:10:00.927Z,54.60
2022-08-07T14:12:55.522Z,53.50
2022-08-07T14:15:50.690Z,54.90
2022-08-07T14:18:33.286Z,54.10
2022-08-07T14:22:00.504Z,52.50
2022-08-07T14:24:12.919Z,52.50
2022-08-07T14:26:50.300Z,49.40
2022-08-07T14:30:07.734Z,50.50
2022-08-07T14:32:15.386Z,49.70
2022-08-07T14:34:48.192Z,47.80
2022-08-07T14:37:38.899Z,48.30
2022-08-07T14:40:18.364Z,48.10
2022-08-07T14:43:57.074Z,48.90
2022-08-07T14:45:59.808Z,48.50
2022-08-07T14:48:31.572Z,48.00
2022-08-07T14:51:19.090Z,48.70
2022-08-07T14:54:30.432Z,49.80
2022-08-07T14:56:42.887Z,47.80
2022-08-07T15:00:04.876Z,47.70
2022-08-07T15:05:20.465Z,48.60
2022-08-07T15:07:52.607Z,48.20
2022-08-07T15:10:27.048Z,48.80
2022-08-07T15:13:12.358Z,48.80
2022-08-07T15:15:52.714Z,49.10
2022-08-07T15:18:40.104Z,48.90
2022-08-07T15:21:43.983Z,49.00
2022-08-07T15:25:13.102Z,49.00
2022-08-07T15:27:26.113Z,49.20
2022-08-07T15:30:06.467Z,49.70
2022-08-07T15:33:01.289Z,50.00
2022-08-07T15:36:02.101Z,49.80
2022-08-07T15:41:24.356Z,50.00
2022-08-07T15:44:10.465Z,47.80
2022-08-07T15:46:47.376Z,48.20
2022-08-07T15:50:03.831Z,48.10
2022-08-07T15:52:17.250Z,49.00
2022-08-07T15:54:51.086Z,49.10
2022-08-07T15:57:39.595Z,49.50
2022-08-07T16:00:33.757Z,50.00
2022-08-07T16:03:21.697Z,50.50
2022-08-07T16:06:04.415Z,50.20
2022-08-07T16:08:38.404Z,50.50
2022-08-07T16:11:26.643Z,50.50
2022-08-07T16:14:26.716Z,50.90
2022-08-07T16:17:16.280Z,50.90
2022-08-07T16:20:33.418Z,51.40
2022-08-07T16:23:53.969Z,51.60
2022-08-07T16:26:30.602Z,51.50
2022-08-07T16:30:10.237Z,52.00
2022-08-07T16:32:38.762Z,52.10
2022-08-07T16:35:58.308Z,52.10
2022-08-07T16:38:59.842Z,52.40
2022-08-07T16:41:54.306Z,52.70
2022-08-07T16:45:14.690Z,52.90
2022-08-07T16:48:05.011Z,53.00
2022-08-07T16:51:13.500Z,53.10
2022-08-07T16:54:09.286Z,53.10
2022-08-07T16:58:00.663Z,52.80
2022-08-07T17:00:29.406Z,52.80
2022-08-07T17:03:57.884Z,52.90
2022-08-07T17:06:46.587Z,52.50
2022-08-07T17:10:07.928Z,52.70
2022-08-07T17:12:52.981Z,52.50
2022-08-07T17:15:50.716Z,52.60
2022-08-07T17:18:38.509Z,52.50
2022-08-07T17:21:19.104Z,52.50
2022-08-07T17:24:14.838Z,52.20
2022-08-07T17:27:07.708Z,52.60
2022-08-07T17:30:14.048Z,52.80
2022-08-07T17:34:09.757Z,52.60
2022-08-07T17:36:20.311Z,52.70
2022-08-07T17:39:19.970Z,52.60
2022-08-07T17:42:06.986Z,52.60
2022-08-07T17:44:50.377Z,52.40
2022-08-07T17:47:38.541Z,52.70
2022-08-07T17:50:42.600Z,52.90
2022-08-07T17:54:00.824Z,53.10
2022-08-07T17:56:29.311Z,52.60
2022-08-07T17:58:57.418Z,52.80
2022-08-07T18:01:40.218Z,52.90
2022-08-07T18:04:30.802Z,52.80
2022-08-07T18:07:28.554Z,53.10
2022-08-07T18:10:32.773Z,52.80
2022-08-07T18:13:41.070Z,52.90
2022-08-07T18:16:31.167Z,52.80
2022-08-07T18:21:07.005Z,53.00
2022-08-07T18:22:58.056Z,53.00
2022-08-07T18:25:40.063Z,53.10
2022-08-07T18:28:58.160Z,53.50
2022-08-07T18:31:58.106Z,53.60
2022-08-07T18:35:17.995Z,54.00
2022-08-07T18:38:55.411Z,53.80
2022-08-07T18:41:16.728Z,53.80
2022-08-07T18:43:59.872Z,53.90
2022-08-07T18:46:47.627Z,54.40
2022-08-07T18:50:32.921Z,54.20
2022-08-07T18:53:14.152Z,54.40
2022-08-07T18:56:18.832Z,54.50
2022-08-07T18:58:52.504Z,54.50
2022-08-07T19:02:18.708Z,54.90
2022-08-07T19:05:15.886Z,54.80
2022-08-07T19:08:13.973Z,55.50
2022-08-07T19:10:52.453Z,55.60
2022-08-07T19:13:42.965Z,55.60
2022-08-07T19:17:00.329Z,55.80
2022-08-07T19:19:32.070Z,55.70
2022-08-07T19:22:30.650Z,55.70
2022-08-07T19:25:06.300Z,55.80
2022-08-07T19:28:57.381Z,56.30
2022-08-07T19:31:03.860Z,56.50
2022-08-07T19:33:34.615Z,56.70
2022-08-07T19:36:04.036Z,55.90
2022-08-07T19:38:35.539Z,57.10
2022-08-07T19:41:39.374Z,57.10
2022-08-07T19:44:21.832Z,57.30
2022-08-07T19:47:04.769Z,57.40
2022-08-07T19:49:57.142Z,57.60
2022-08-07T19:52:27.819Z,57.90
2022-08-07T19:54:58.381Z,58.10
2022-08-07T19:58:02.493Z,58.00
2022-08-07T20:00:39.258Z,58.00
2022-08-07T20:03:33.718Z,58.30
2022-08-07T20:06:15.386Z,58.60
2022-08-07T20:08:50.722Z,58.70
2022-08-07T20:11:34.232Z,58.90
2022-08-07T20:14:20.552Z,59.10
2022-08-07T20:16:48.745Z,59.10
2022-08-07T20:19:28.935Z,59.10
2022-08-07T20:22:15.834Z,59.20
2022-08-07T20:24:54.870Z,59.30
2022-08-07T20:27:48.114Z,59.50
2022-08-07T20:30:13.895Z,59.70
2022-08-07T20:32:55.178Z,59.70
2022-08-07T20:35:34.487Z,59.70
2022-08-07T20:38:21.906Z,59.90
2022-08-07T20:40:56.634Z,60.00
2022-08-07T20:43:31.037Z,60.00
2022-08-07T20:46:26.006Z,60.10
2022-08-07T20:49:55.200Z,60.10
2022-08-07T20:51:40.741Z,60.20
2022-08-07T20:54:29.601Z,60.20
2022-08-07T20:57:03.931Z,60.40
2022-08-07T21:00:07.798Z,60.50
2022-08-07T21:02:54.372Z,60.50
2022-08-07T21:05:50.882Z,60.60
2022-08-07T21:08:20.679Z,60.60
2022-08-07T21:11:17.047Z,60.70
2022-08-07T21:14:29.858Z,60.80
2022-08-07T21:18:00.706Z,60.80
2022-08-07T21:20:01.110Z,61.00
2022-08-07T21:22:57.633Z,60.80
2022-08-07T21:26:03.959Z,60.50
2022-08-07T21:28:56.971Z,60.60
2022-08-07T21:32:42.112Z,60.60
2022-08-07T21:34:50.606Z,61.20
2022-08-07T21:37:58.033Z,60.90
2022-08-07T21:40:55.076Z,60.90
2022-08-07T21:43:56.086Z,61.10
2022-08-07T21:46:33.098Z,61.40
2022-08-07T21:50:02.557Z,61.60
2022-08-07T21:52:42.737Z,61.10
2022-08-07T21:55:28.392Z,61.50
2022-08-07T21:58:12.212Z,61.70
2022-08-07T22:01:03.236Z,61.80
2022-08-07T22:04:00.752Z,62.00
2022-08-07T22:06:37.441Z,61.60
2022-08-07T22:09:17.730Z,62.40
2022-08-07T22:12:05.071Z,62.40
2022-08-07T22:14:59.902Z,62.50
2022-08-07T22:17:41.294Z,62.70
2022-08-07T22:20:36.832Z,62.70
2022-08-07T22:23:40.458Z,62.60
2022-08-07T22:26:27.576Z,62.90
2022-08-07T22:29:14.724Z,62.70
2022-08-07T22:31:59.036Z,62.90
2022-08-07T22:34:49.768Z,63.10
2022-08-07T22:38:03.154Z,63.10
2022-08-07T22:40:52.789Z,63.20
2022-08-07T22:43:44.752Z,62.90
2022-08-07T22:47:02.565Z,62.90
2022-08-07T22:49:25.607Z,62.70
2022-08-07T22:52:37.782Z,62.30
2022-08-07T22:55:17.512Z,62.20
2022-08-07T22:58:15.081Z,62.00
2022-08-07T23:00:54.715Z,62.10
2022-08-07T23:03:57.254Z,62.10
2022-08-07T23:07:04.062Z,62.40
2022-08-07T23:10:36.305Z,62.30
2022-08-07T23:14:15.484Z,62.30
2022-08-07T23:17:20.171Z,62.30
2022-08-07T23:20:51.258Z,62.30
2022-08-07T23:24:05.396Z,62.60
2022-08-07T23:26:23.564Z,63.00
2022-08-07T23:29:01.974Z,63.20
2022-08-07T23:34:23.251Z,63.40
2022-08-07T23:35:16.711Z,63.20
2022-08-07T23:38:04.070Z,63.20
2022-08-07T23:41:17.170Z,63.30
2022-08-07T23:44:06.536Z,63.10
2022-08-07T23:46:49.663Z,63.60
2022-08-07T23:49:50.105Z,64.00
2022-08-07T23:53:05.367Z,64.00
2022-08-07T23:55:55.847Z,64.30
2022-08-07T23:58:54.801Z,64.40
